Time;durP1;ratioP1;P1;durP2;ratioP2;P2;SDS_P1;SDS_P2;PMS_P1;PMS_P2;Temp;Humidity;BMP_temperature;BMP_pressure;BME280_temperature;BME280_humidity;BME280_pressure;Samples;Min_cycle;Max_cycle;Signal;HPM_P1;HPM_P2
2023/03/08 00:01:02;;;;;;;2.87;2.67;;;22.00;44.00;;;;;;5023460;28;20492;-71
2023/03/08 00:03:32;;;;;;;2.90;2.70;;;22.00;43.90;;;;;;5029510;28;20804;-71
2023/03/08 00:06:04;;;;;;;2.80;2.60;;;22.00;44.00;;;;;;5030437;28;20497;-71
2023/03/08 00:08:32;;;;;;;2.70;2.47;;;21.90;43.70;;;;;;5018751;28;20551;-70
2023/03/08 00:11:04;;;;;;;3.30;3.00;;;21.90;43.90;;;;;;5025028;28;20505;-71
2023/03/08 00:13:32;;;;;;;3.73;2.70;;;21.90;43.60;;;;;;5029383;28;20484;-70
2023/03/08 00:16:00;;;;;;;2.60;2.40;;;21.90;43.50;;;;;;5028023;28;20578;-70
2023/03/08 00:18:28;;;;;;;3.03;2.73;;;21.90;43.60;;;;;;5018709;28;20857;-70
2023/03/08 00:21:02;;;;;;;2.90;2.70;;;21.90;43.80;;;;;;5029280;28;20454;-70
2023/03/08 00:23:31;;;;;;;2.77;2.43;;;21.90;43.80;;;;;;5019718;28;20971;-70
2023/03/08 00:25:59;;;;;;;4.20;3.50;;;21.90;43.90;;;;;;5010216;28;20525;-70
2023/03/08 00:28:28;;;;;;;4.07;2.60;;;22.00;43.90;;;;;;5009784;28;20432;-71
2023/03/08 00:30:57;;;;;;;3.60;3.30;;;21.90;43.70;;;;;;5022954;28;20484;-70
2023/03/08 00:33:26;;;;;;;2.97;2.77;;;22.00;43.40;;;;;;5030030;28;20528;-70
2023/03/08 00:35:58;;;;;;;2.97;2.77;;;22.00;43.30;;;;;;5027648;28;20454;-71
2023/03/08 00:38:28;;;;;;;3.00;2.80;;;22.00;43.30;;;;;;5027663;28;20553;-71
2023/03/08 00:40:56;;;;;;;2.50;2.30;;;22.00;43.00;;;;;;5023115;28;20477;-71
2023/03/08 00:43:24;;;;;;;3.50;3.20;;;22.00;43.10;;;;;;5027326;28;20485;-71
2023/03/08 00:45:53;;;;;;;2.40;2.30;;;22.00;43.10;;;;;;5029581;28;20491;-70
2023/03/08 00:48:23;;;;;;;3.23;3.03;;;22.00;43.30;;;;;;5030225;28;20474;-70
2023/03/08 00:50:52;;;;;;;2.83;2.63;;;22.00;43.40;;;;;;5028726;28;20457;-71
2023/03/08 00:53:20;;;;;;;3.30;3.00;;;22.00;43.00;;;;;;5029519;28;20473;-71
2023/03/08 00:55:52;;;;;;;2.20;2.10;;;22.00;43.00;;;;;;5013810;28;20463;-71
2023/03/08 00:58:21;;;;;;;2.60;2.40;;;22.00;43.50;;;;;;5017933;28;20462;-71
2023/03/08 01:00:49;;;;;;;2.70;2.50;;;21.90;43.20;;;;;;5021113;28;20466;-71
2023/03/08 01:03:18;;;;;;;2.47;2.27;;;21.90;43.10;;;;;;5011649;28;20960;-70
2023/03/08 01:05:50;;;;;;;3.03;2.80;;;21.90;43.10;;;;;;5025431;28;20558;-71
2023/03/08 01:08:19;;;;;;;3.33;3.07;;;21.90;43.00;;;;;;5029638;28;20482;-71
2023/03/08 01:10:48;;;;;;;2.80;2.60;;;21.90;43.20;;;;;;5027744;28;20546;-70
2023/03/08 01:13:19;;;;;;;2.80;2.60;;;21.90;43.30;;;;;;5028653;28;20451;-70
2023/03/08 01:15:47;;;;;;;3.80;3.50;;;21.90;43.30;;;;;;5013286;28;20976;-70
2023/03/08 01:18:16;;;;;;;3.03;2.80;;;21.90;42.90;;;;;;5008954;28;20467;-71
2023/03/08 01:20:44;;;;;;;2.63;2.43;;;21.90;42.90;;;;;;5020806;28;20480;-70
2023/03/08 01:23:13;;;;;;;2.77;2.57;;;21.90;43.20;;;;;;5028206;28;20474;-71
2023/03/08 01:25:41;;;;;;;4.40;4.03;;;21.90;43.10;;;;;;5027730;28;21029;-71
2023/03/08 01:28:09;;;;;;;3.20;2.90;;;21.80;42.70;;;;;;5026093;28;20582;-70
2023/03/08 01:30:39;;;;;;;4.37;3.97;;;21.80;42.80;;;;;;5021749;28;20614;-71
2023/03/08 01:33:07;;;;;;;3.30;2.93;;;21.80;42.80;;;;;;5029443;28;20933;-71
2023/03/08 01:35:37;;;;;;;3.53;3.13;;;21.80;42.90;;;;;;5029302;28;20950;-71
2023/03/08 01:38:06;;;;;;;3.00;2.80;;;21.80;42.90;;;;;;5021911;28;20477;-71
2023/03/08 01:40:34;;;;;;;2.73;2.53;;;21.80;42.90;;;;;;5014372;28;20981;-70
2023/03/08 01:43:21;;;;;;;2.90;2.70;;;21.80;42.90;;;;;;5015734;28;21016;-72
2023/03/08 01:46:06;;;;;;;2.83;2.63;;;21.80;43.30;;;;;;5027650;28;20557;-71
2023/03/08 01:48:40;;;;;;;2.93;2.70;;;21.80;43.30;;;;;;5023027;28;20486;-71
2023/03/08 01:51:19;;;;;;;3.10;2.90;;;21.80;43.20;;;;;;5018333;28;20550;-71
2023/03/08 01:53:48;;;;;;;2.73;2.53;;;21.80;43.10;;;;;;5030207;28;20430;-72
2023/03/08 01:56:18;;;;;;;3.20;2.90;;;21.80;42.90;;;;;;5032174;28;20453;-71
2023/03/08 01:58:50;;;;;;;3.60;3.30;;;21.80;43.00;;;;;;5030941;28;20493;-71
2023/03/08 02:01:21;;;;;;;3.53;3.23;;;21.80;42.60;;;;;;5020105;28;20463;-71
2023/03/08 02:03:52;;;;;;;3.20;2.90;;;21.80;42.60;;;;;;5033050;28;20423;-70
2023/03/08 02:06:21;;;;;;;3.07;2.80;;;21.80;42.50;;;;;;5030614;28;20525;-70
2023/03/08 02:08:50;;;;;;;3.77;3.47;;;21.70;42.60;;;;;;5022945;28;20839;-71
2023/03/08 02:11:21;;;;;;;3.30;3.10;;;21.70;42.60;;;;;;5030776;28;20494;-71
2023/03/08 02:13:55;;;;;;;3.00;2.80;;;21.70;42.60;;;;;;5025959;28;20815;-71
2023/03/08 02:16:25;;;;;;;2.93;2.73;;;21.70;42.50;;;;;;5031062;28;20515;-71
2023/03/08 02:18:57;;;;;;;3.23;3.00;;;21.70;42.70;;;;;;5032853;28;20940;-71
2023/03/08 02:21:28;;;;;;;2.70;2.50;;;21.60;42.70;;;;;;5031064;28;20462;-71
2023/03/08 02:24:05;;;;;;;2.57;2.37;;;21.60;43.10;;;;;;5032860;28;20455;-70
2023/03/08 02:26:35;;;;;;;3.47;3.17;;;21.70;42.90;;;;;;5031607;28;20496;-72
2023/03/08 02:29:05;;;;;;;3.37;3.17;;;21.70;42.80;;;;;;5030617;28;20505;-71
2023/03/08 02:31:33;;;;;;;3.73;3.53;;;21.70;42.40;;;;;;5026794;28;20462;-72
2023/03/08 02:34:01;;;;;;;4.50;3.30;;;21.60;42.50;;;;;;5030097;28;20492;-71
2023/03/08 02:36:30;;;;;;;3.00;2.70;;;21.60;42.90;;;;;;5029495;28;21207;-71
2023/03/08 02:39:00;;;;;;;3.50;3.20;;;21.60;42.80;;;;;;5031633;28;20461;-72
2023/03/08 02:41:29;;;;;;;3.23;2.93;;;21.60;42.50;;;;;;5028815;28;20578;-71
2023/03/08 02:43:57;;;;;;;2.80;2.60;;;21.60;42.60;;;;;;5027730;28;20553;-71
2023/03/08 02:46:26;;;;;;;3.13;2.90;;;21.60;42.40;;;;;;5030720;28;20965;-72
2023/03/08 02:48:54;;;;;;;3.07;2.87;;;21.60;42.40;;;;;;5031863;28;20999;-72
2023/03/08 02:51:22;;;;;;;3.20;2.87;;;21.60;42.50;;;;;;5030610;28;20672;-71
2023/03/08 02:53:51;;;;;;;3.83;3.53;;;21.60;42.50;;;;;;5032357;28;20439;-71
2023/03/08 02:56:20;;;;;;;4.33;3.53;;;21.60;42.50;;;;;;5024281;28;20474;-71
2023/03/08 02:58:49;;;;;;;3.70;3.40;;;21.60;42.40;;;;;;5025895;28;20819;-71
2023/03/08 03:01:17;;;;;;;3.33;3.07;;;21.60;42.40;;;;;;5023663;28;20462;-71
2023/03/08 03:03:45;;;;;;;3.30;3.00;;;21.60;42.40;;;;;;5023813;28;20488;-71
2023/03/08 03:06:15;;;;;;;3.23;2.93;;;21.60;42.40;;;;;;5011735;28;20455;-71
2023/03/08 03:08:46;;;;;;;3.43;3.13;;;21.60;42.40;;;;;;5011257;28;20824;-70
2023/03/08 03:11:18;;;;;;;3.33;3.03;;;21.60;42.40;;;;;;5010877;28;20462;-71
2023/03/08 03:13:55;;;;;;;3.70;3.40;;;21.60;42.40;;;;;;5026522;28;20466;-71
2023/03/08 03:16:26;;;;;;;3.00;2.70;;;21.60;42.40;;;;;;5010695;28;20467;-70
2023/03/08 03:18:55;;;;;;;3.50;2.97;;;21.50;42.40;;;;;;5029099;28;20482;-71
2023/03/08 03:21:24;;;;;;;3.87;3.47;;;21.50;42.40;;;;;;5029350;28;20462;-71
2023/03/08 03:23:54;;;;;;;2.83;2.63;;;21.50;42.40;;;;;;5025608;28;20462;-71
2023/03/08 03:26:29;;;;;;;3.80;3.17;;;21.50;42.40;;;;;;5026951;28;20475;-71
2023/03/08 03:28:59;;;;;;;3.20;3.00;;;21.50;42.40;;;;;;5029363;28;20527;-71
2023/03/08 03:31:32;;;;;;;3.63;2.93;;;21.50;42.40;;;;;;5026936;28;20548;-71
2023/03/08 03:34:00;;;;;;;3.00;2.77;;;21.50;42.50;;;;;;5029307;28;20556;-71
2023/03/08 03:36:29;;;;;;;3.37;3.07;;;21.50;42.70;;;;;;5027999;28;20526;-71
2023/03/08 03:38:58;;;;;;;3.33;3.03;;;21.50;42.50;;;;;;5010451;28;20473;-71
2023/03/08 03:41:28;;;;;;;3.47;3.20;;;21.50;42.40;;;;;;5009026;28;20558;-70
2023/03/08 03:44:05;;;;;;;3.10;2.87;;;21.50;42.60;;;;;;5025450;28;20985;-71
2023/03/08 03:46:34;;;;;;;5.17;3.60;;;21.50;42.50;;;;;;5028093;28;20485;-71
2023/03/08 03:49:06;;;;;;;3.17;2.97;;;21.50;42.50;;;;;;5029403;28;20846;-71
2023/03/08 03:51:38;;;;;;;4.13;3.57;;;21.40;42.50;;;;;;5018871;28;20471;-70
2023/03/08 03:54:29;;;;;;;3.20;2.53;;;21.40;42.70;;;;;;5018680;28;20964;-71
2023/03/08 03:56:59;;;;;;;3.97;3.60;;;21.50;42.80;;;;;;5022226;28;20470;-70
2023/03/08 03:59:33;;;;;;;3.63;3.27;;;21.50;42.80;;;;;;5026891;28;20479;-71
2023/03/08 04:02:02;;;;;;;3.40;3.10;;;21.50;42.70;;;;;;5029245;28;20489;-71
2023/03/08 04:04:39;;;;;;;3.13;2.93;;;21.50;42.70;;;;;;5029168;28;20872;-72
2023/03/08 04:07:11;;;;;;;3.30;3.10;;;21.60;42.70;;;;;;5024456;28;20466;-71
2023/03/08 04:09:43;;;;;;;3.43;3.13;;;21.60;42.70;;;;;;5024016;28;20473;-71
2023/03/08 04:12:15;;;;;;;3.40;3.07;;;21.60;42.70;;;;;;5028291;28;20553;-70
2023/03/08 04:14:46;;;;;;;3.50;3.00;;;21.60;42.60;;;;;;5028897;28;20465;-71
2023/03/08 04:17:16;;;;;;;3.37;3.13;;;21.60;42.60;;;;;;5027321;28;20548;-70
2023/03/08 04:19:49;;;;;;;3.20;3.00;;;21.60;42.50;;;;;;5028999;28;20454;-71
2023/03/08 04:22:19;;;;;;;3.80;3.03;;;21.70;42.40;;;;;;5020594;28;20458;-71
2023/03/08 04:24:52;;;;;;;3.93;3.37;;;21.70;42.40;;;;;;5029871;28;20520;-69
2023/03/08 04:27:38;;;;;;;3.80;3.40;;;21.70;42.30;;;;;;5025994;28;20477;-71
2023/03/08 04:30:10;;;;;;;3.87;3.50;;;21.70;42.30;;;;;;5028585;28;20591;-71
2023/03/08 04:32:39;;;;;;;5.53;3.27;;;21.70;42.30;;;;;;5011393;28;20468;-71
2023/03/08 04:35:08;;;;;;;4.50;3.10;;;21.70;42.30;;;;;;5025859;28;20510;-70
2023/03/08 04:37:39;;;;;;;2.67;2.47;;;21.70;42.30;;;;;;5026417;28;20461;-71
2023/03/08 04:40:13;;;;;;;4.07;3.50;;;21.70;42.30;;;;;;5030859;28;20458;-71
2023/03/08 04:42:48;;;;;;;3.50;3.20;;;21.70;42.20;;;;;;5027889;28;20452;-71
2023/03/08 04:45:21;;;;;;;4.00;3.70;;;21.70;42.10;;;;;;5028419;28;20471;-71
2023/03/08 04:47:49;;;;;;;3.90;3.60;;;21.60;42.10;;;;;;5027697;28;20556;-71
2023/03/08 04:50:18;;;;;;;3.77;3.47;;;21.60;42.10;;;;;;5019222;28;20475;-71
2023/03/08 04:52:46;;;;;;;3.30;2.73;;;21.60;42.30;;;;;;5028527;28;20493;-71
2023/03/08 04:55:15;;;;;;;3.87;3.57;;;21.60;42.30;;;;;;5029556;28;20532;-71
2023/03/08 04:57:44;;;;;;;3.53;3.23;;;21.60;42.30;;;;;;5022699;28;20465;-71
2023/03/08 05:00:14;;;;;;;4.23;3.83;;;21.60;42.20;;;;;;5028457;28;20807;-71
2023/03/08 05:02:44;;;;;;;3.17;2.97;;;21.60;42.10;;;;;;5021897;28;20462;-71
2023/03/08 05:05:17;;;;;;;3.73;3.47;;;21.60;42.40;;;;;;5017254;28;20467;-70
2023/03/08 05:07:45;;;;;;;4.23;3.67;;;21.60;42.40;;;;;;5020921;28;20469;-70
2023/03/08 05:10:14;;;;;;;3.77;3.47;;;21.60;42.30;;;;;;5020644;28;20502;-71
2023/03/08 05:12:42;;;;;;;5.20;3.50;;;21.60;42.40;;;;;;5023230;28;20462;-70
2023/03/08 05:15:11;;;;;;;3.73;3.40;;;21.60;42.30;;;;;;5022930;28;20462;-70
2023/03/08 05:17:39;;;;;;;4.20;3.80;;;21.60;42.40;;;;;;5027396;28;20982;-70
2023/03/08 05:20:10;;;;;;;4.00;3.50;;;21.60;42.40;;;;;;5027875;28;20541;-70
2023/03/08 05:22:42;;;;;;;3.33;3.03;;;21.60;42.30;;;;;;5023207;28;20502;-71
2023/03/08 05:25:29;;;;;;;4.90;3.40;;;21.60;42.30;;;;;;5027121;28;20473;-70
2023/03/08 05:27:58;;;;;;;3.50;3.17;;;21.60;42.20;;;;;;5016361;28;20517;-70
2023/03/08 05:30:26;;;;;;;3.70;3.10;;;21.60;42.30;;;;;;5023261;28;20490;-70
2023/03/08 05:32:55;;;;;;;3.60;3.37;;;21.60;42.20;;;;;;5026290;28;20587;-70
2023/03/08 05:35:26;;;;;;;3.93;3.63;;;21.60;42.20;;;;;;5018369;28;20499;-70
2023/03/08 05:37:54;;;;;;;6.60;4.73;;;21.60;42.20;;;;;;5028471;28;20463;-70
2023/03/08 05:40:22;;;;;;;4.27;3.97;;;21.60;42.20;;;;;;5021920;28;20455;-70
2023/03/08 05:42:51;;;;;;;4.57;4.17;;;21.60;42.20;;;;;;5027454;28;20453;-70
2023/03/08 05:45:19;;;;;;;4.20;3.83;;;21.70;42.20;;;;;;5024867;28;20823;-70
2023/03/08 05:47:48;;;;;;;3.93;3.63;;;21.70;42.10;;;;;;5020221;28;20470;-70
2023/03/08 05:50:16;;;;;;;3.43;3.13;;;21.70;42.00;;;;;;5020655;28;20564;-70
2023/03/08 05:52:48;;;;;;;4.10;3.77;;;21.70;42.00;;;;;;5022537;28;20533;-70
2023/03/08 05:55:21;;;;;;;4.33;3.93;;;21.70;42.00;;;;;;5029544;28;20466;-70
2023/03/08 05:57:50;;;;;;;3.83;3.57;;;21.70;42.00;;;;;;5015667;28;20533;-72
2023/03/08 06:00:21;;;;;;;3.43;3.13;;;21.70;41.90;;;;;;5026590;28;20472;-71
2023/03/08 06:02:54;;;;;;;4.47;4.00;;;21.80;42.10;;;;;;5031167;28;20459;-70
2023/03/08 06:05:23;;;;;;;4.13;3.73;;;21.80;42.10;;;;;;5027195;28;20608;-73
2023/03/08 06:07:56;;;;;;;4.93;3.90;;;21.80;42.20;;;;;;5027756;28;20497;-76
2023/03/08 06:10:25;;;;;;;4.30;3.90;;;21.80;42.40;;;;;;5027348;28;20489;-72
2023/03/08 06:12:54;;;;;;;4.23;3.83;;;21.80;42.50;;;;;;5030920;28;20501;-75
2023/03/08 06:15:24;;;;;;;4.30;4.00;;;21.80;42.70;;;;;;5024975;28;21223;-72
2023/03/08 06:17:54;;;;;;;4.10;3.70;;;21.80;42.90;;;;;;5029272;28;20463;-72
2023/03/08 06:20:25;;;;;;;3.47;3.17;;;21.80;43.00;;;;;;5025912;28;20462;-72
2023/03/08 06:22:53;;;;;;;4.20;3.83;;;21.80;43.20;;;;;;5027272;28;21054;-73
2023/03/08 06:25:22;;;;;;;4.37;3.63;;;21.80;43.30;;;;;;5026197;28;20439;-73
2023/03/08 06:27:51;;;;;;;3.97;3.03;;;21.70;43.40;;;;;;5024796;28;20545;-73
2023/03/08 06:30:39;;;;;;;4.13;3.30;;;21.70;43.50;;;;;;5024205;28;21026;-71
2023/03/08 06:33:07;;;;;;;4.77;4.30;;;21.70;43.50;;;;;;5024129;28;20546;-73
2023/03/08 06:35:36;;;;;;;3.80;3.40;;;21.70;43.70;;;;;;5036365;28;21032;-72
2023/03/08 06:38:05;;;;;;;3.77;3.47;;;21.70;43.80;;;;;;5032248;28;20466;-71
2023/03/08 06:40:35;;;;;;;7.43;3.80;;;21.70;43.80;;;;;;5023484;28;20472;-71
2023/03/08 06:43:04;;;;;;;6.93;4.00;;;21.70;43.90;;;;;;5036733;28;20519;-71
2023/03/08 06:45:33;;;;;;;3.83;3.50;;;21.70;44.10;;;;;;5020630;28;20503;-71
2023/03/08 06:48:01;;;;;;;3.97;3.17;;;21.70;44.20;;;;;;5024789;28;20544;-72
2023/03/08 06:50:30;;;;;;;4.00;3.70;;;21.70;44.30;;;;;;5034705;28;20512;-71
2023/03/08 06:52:59;;;;;;;5.63;4.03;;;21.70;44.40;;;;;;5026248;28;20520;-72
2023/03/08 06:55:46;;;;;;;4.90;3.90;;;21.70;44.40;;;;;;5023911;28;20465;-71
2023/03/08 06:58:14;;;;;;;8.63;3.90;;;21.70;44.40;;;;;;5018484;28;20477;-72
2023/03/08 07:00:43;;;;;;;5.50;4.00;;;21.70;44.30;;;;;;5024640;28;20963;-71
2023/03/08 07:03:12;;;;;;;5.77;4.10;;;21.70;44.20;;;;;;5018669;28;20862;-65
2023/03/08 07:05:41;;;;;;;6.40;3.70;;;21.80;44.20;;;;;;5027574;28;20454;-65
2023/03/08 07:08:09;;;;;;;4.90;3.60;;;21.80;44.20;;;;;;5018815;28;20520;-66
2023/03/08 07:10:37;;;;;;;4.43;3.93;;;21.80;44.20;;;;;;5016403;28;20505;-67
2023/03/08 07:13:07;;;;;;;7.10;4.73;;;21.90;44.20;;;;;;5018521;28;20963;-67
2023/03/08 07:15:39;;;;;;;5.03;4.47;;;22.00;44.20;;;;;;5012662;28;20516;-66
2023/03/08 07:18:07;;;;;;;5.07;4.57;;;22.00;44.20;;;;;;5012577;28;20452;-67
2023/03/08 07:20:36;;;;;;;5.23;4.73;;;22.00;44.10;;;;;;5013859;28;20537;-66
2023/03/08 07:23:04;;;;;;;5.37;4.87;;;22.00;44.00;;;;;;5015034;28;20905;-66
2023/03/08 07:25:32;;;;;;;8.33;4.40;;;22.10;43.90;;;;;;5026280;28;20490;-66
2023/03/08 07:28:01;;;;;;;7.00;4.57;;;22.10;43.80;;;;;;5014765;28;20445;-67
2023/03/08 07:30:30;;;;;;;6.17;4.13;;;22.10;43.80;;;;;;5010475;28;20528;-66
2023/03/08 07:32:58;;;;;;;4.77;4.37;;;22.10;43.70;;;;;;5012646;28;20539;-67
2023/03/08 07:35:27;;;;;;;5.23;4.47;;;22.10;43.50;;;;;;5013954;28;20466;-67
2023/03/08 07:37:55;;;;;;;5.07;4.67;;;22.10;43.30;;;;;;5010910;28;21038;-67
2023/03/08 07:40:23;;;;;;;7.23;4.87;;;22.10;43.40;;;;;;5014813;28;20459;-66
2023/03/08 07:42:51;;;;;;;4.43;4.03;;;22.10;43.60;;;;;;5014022;28;20481;-66
2023/03/08 07:45:39;;;;;;;4.60;4.10;;;22.10;43.60;;;;;;5012162;28;20473;-67
2023/03/08 07:48:07;;;;;;;5.10;4.70;;;22.10;43.50;;;;;;5013371;28;20471;-66
2023/03/08 07:50:35;;;;;;;4.97;4.50;;;22.10;43.40;;;;;;5010660;28;20530;-65
2023/03/08 07:53:04;;;;;;;4.63;4.07;;;22.10;43.30;;;;;;5014621;28;21042;-66
2023/03/08 07:55:32;;;;;;;5.53;4.30;;;22.10;43.30;;;;;;5014026;28;20527;-67
2023/03/08 07:58:00;;;;;;;5.00;4.50;;;22.10;43.30;;;;;;5016083;28;20463;-67
2023/03/08 08:00:29;;;;;;;5.43;4.23;;;22.10;43.30;;;;;;5027630;28;21059;-67
2023/03/08 08:02:58;;;;;;;6.33;5.77;;;22.10;43.30;;;;;;5024830;28;20561;-68
2023/03/08 08:05:26;;;;;;;5.97;4.93;;;22.10;43.30;;;;;;5030916;28;20483;-68
2023/03/08 08:07:55;;;;;;;5.23;4.80;;;22.10;43.30;;;;;;5031279;28;20557;-67
2023/03/08 08:10:23;;;;;;;4.93;4.53;;;22.10;43.30;;;;;;5030900;28;20511;-65
2023/03/08 08:12:51;;;;;;;6.03;5.43;;;22.10;43.20;;;;;;5029633;28;20997;-66
2023/03/08 08:15:19;;;;;;;5.33;4.83;;;22.20;43.30;;;;;;5030839;28;20977;-65
2023/03/08 08:17:48;;;;;;;5.77;5.27;;;22.20;43.30;;;;;;5028998;28;20457;-67
2023/03/08 08:20:17;;;;;;;5.80;5.27;;;22.20;43.10;;;;;;5030907;28;20475;-67
2023/03/08 08:22:45;;;;;;;5.30;4.80;;;22.10;43.30;;;;;;5029962;28;20558;-67
2023/03/08 08:25:14;;;;;;;4.83;4.43;;;22.20;43.10;;;;;;5029050;28;20448;-67
2023/03/08 08:27:42;;;;;;;5.23;4.73;;;22.20;43.30;;;;;;5029708;28;20463;-66
2023/03/08 08:30:13;;;;;;;5.20;4.70;;;22.20;43.30;;;;;;5017058;28;20566;-66
2023/03/08 08:32:41;;;;;;;4.30;4.00;;;22.20;43.10;;;;;;5029840;28;20801;-67
2023/03/08 08:35:12;;;;;;;5.07;4.57;;;22.20;43.30;;;;;;5029932;28;20861;-67
2023/03/08 08:37:42;;;;;;;4.00;3.70;;;22.20;43.10;;;;;;5030740;28;21010;-67
2023/03/08 08:40:11;;;;;;;5.07;4.60;;;22.20;43.30;;;;;;5030246;28;20477;-66
2023/03/08 08:42:40;;;;;;;5.10;4.60;;;22.20;43.30;;;;;;5029297;28;20496;-68
2023/03/08 08:45:10;;;;;;;5.10;4.70;;;22.30;43.30;;;;;;5031219;28;20529;-67
2023/03/08 08:47:38;;;;;;;5.20;4.80;;;22.30;43.30;;;;;;5029654;28;20469;-68
2023/03/08 08:50:06;;;;;;;5.37;4.87;;;22.30;43.10;;;;;;5030160;28;20502;-67
2023/03/08 08:52:35;;;;;;;4.67;4.27;;;22.30;43.20;;;;;;5030053;28;20541;-67
2023/03/08 08:55:05;;;;;;;6.23;3.60;;;22.30;43.30;;;;;;5025573;28;20448;-68
2023/03/08 08:57:35;;;;;;;4.17;3.87;;;22.30;43.30;;;;;;5019049;28;20933;-68
2023/03/08 09:00:07;;;;;;;5.27;4.60;;;22.30;43.30;;;;;;5027114;28;20515;-67
2023/03/08 09:02:35;;;;;;;4.57;4.10;;;22.30;43.20;;;;;;5027599;28;20540;-67
2023/03/08 09:05:04;;;;;;;4.33;3.93;;;22.30;43.20;;;;;;5034321;28;20446;-68
2023/03/08 09:07:32;;;;;;;4.90;4.50;;;22.30;43.30;;;;;;5034410;28;20449;-68
2023/03/08 09:10:00;;;;;;;4.03;3.63;;;22.20;43.20;;;;;;5034031;28;20485;-68
2023/03/08 09:12:32;;;;;;;4.20;3.80;;;22.20;43.20;;;;;;5033156;28;20600;-68
2023/03/08 09:15:00;;;;;;;4.20;3.80;;;22.20;43.40;;;;;;5032099;28;20534;-68
2023/03/08 09:17:29;;;;;;;4.70;4.30;;;22.20;43.40;;;;;;5022898;28;20924;-68
2023/03/08 09:19:58;;;;;;;4.10;3.77;;;22.20;43.30;;;;;;5032770;28;20534;-69
2023/03/08 09:22:26;;;;;;;4.67;4.30;;;22.20;43.40;;;;;;5033387;28;20548;-68
2023/03/08 09:24:54;;;;;;;4.87;4.43;;;22.20;43.50;;;;;;5034296;28;20935;-69
2023/03/08 09:27:22;;;;;;;3.83;3.53;;;22.20;43.50;;;;;;5032778;28;20443;-68
2023/03/08 09:29:52;;;;;;;4.30;3.90;;;22.20;43.60;;;;;;5033358;28;20482;-68
2023/03/08 09:32:20;;;;;;;3.67;3.37;;;22.20;43.50;;;;;;5033415;28;20470;-67
2023/03/08 09:34:49;;;;;;;3.87;3.57;;;22.20;43.60;;;;;;5026356;28;20467;-68
2023/03/08 09:37:17;;;;;;;3.23;3.03;;;22.20;43.60;;;;;;5018326;28;20489;-67
2023/03/08 09:39:45;;;;;;;3.70;3.37;;;22.20;43.60;;;;;;5026103;28;20501;-68
2023/03/08 09:42:22;;;;;;;3.53;3.27;;;22.20;43.60;;;;;;5032425;28;20560;-68
2023/03/08 09:45:19;;;;;;;3.47;3.17;;;22.20;43.70;;;;;;5033686;28;20456;-65
2023/03/08 09:47:50;;;;;;;5.23;3.13;;;22.20;43.70;;;;;;5032760;28;20478;-65
2023/03/08 09:50:34;;;;;;;4.67;3.27;;;22.20;43.50;;;;;;5030707;28;20550;-65
2023/03/08 09:53:10;;;;;;;3.60;3.27;;;22.20;43.40;;;;;;5030132;28;20474;-65
2023/03/08 09:55:47;;;;;;;3.37;3.07;;;22.20;43.30;;;;;;5018628;28;20553;-65
2023/03/08 09:58:22;;;;;;;3.50;3.20;;;22.20;43.30;;;;;;5036993;28;20451;-65
2023/03/08 10:00:51;;;;;;;3.07;2.87;;;22.30;43.30;;;;;;5033137;28;20541;-64
2023/03/08 10:03:48;;;;;;;3.50;3.10;;;22.30;43.60;;;;;;5026602;28;20462;-64
2023/03/08 10:06:21;;;;;;;3.03;2.83;;;22.30;43.70;;;;;;5031693;28;20455;-64
2023/03/08 10:08:55;;;;;;;4.40;3.10;;;22.30;43.70;;;;;;5032221;28;20799;-65
2023/03/08 10:11:30;;;;;;;4.00;3.60;;;22.30;43.70;;;;;;5032825;28;20447;-64
2023/03/08 10:14:11;;;;;;;5.50;3.40;;;22.30;43.70;;;;;;5027348;28;20521;-63
2023/03/08 10:16:45;;;;;;;3.00;2.80;;;22.30;43.80;;;;;;5026334;28;20449;-64
2023/03/08 10:19:18;;;;;;;2.87;2.67;;;22.40;43.80;;;;;;5033139;28;20479;-64
2023/03/08 10:21:47;;;;;;;2.93;2.73;;;22.40;43.80;;;;;;5035934;28;20824;-64
2023/03/08 10:24:25;;;;;;;2.80;2.60;;;22.40;43.80;;;;;;5029164;28;20458;-64
2023/03/08 10:26:54;;;;;;;3.60;3.20;;;22.40;43.90;;;;;;5018452;28;20514;-64
2023/03/08 10:29:22;;;;;;;2.90;2.70;;;22.40;43.80;;;;;;5031249;28;20443;-64
2023/03/08 10:31:52;;;;;;;3.60;2.70;;;22.40;43.90;;;;;;5032303;28;20574;-64
2023/03/08 10:34:25;;;;;;;2.70;2.50;;;22.40;43.90;;;;;;5032467;28;20462;-64
2023/03/08 10:36:59;;;;;;;2.87;2.63;;;22.40;44.00;;;;;;5032492;28;20482;-64
2023/03/08 10:39:28;;;;;;;3.00;2.67;;;22.30;44.00;;;;;;5032507;28;20827;-64
2023/03/08 10:41:58;;;;;;;2.60;2.40;;;22.30;44.00;;;;;;5031945;28;20513;-65
2023/03/08 10:44:35;;;;;;;3.33;3.13;;;22.30;44.10;;;;;;5027249;28;20459;-65
2023/03/08 10:47:18;;;;;;;2.90;2.70;;;22.30;44.10;;;;;;5027976;28;20520;-65
2023/03/08 10:49:50;;;;;;;2.60;2.40;;;22.30;44.20;;;;;;5031675;28;20472;-64
2023/03/08 10:52:25;;;;;;;2.70;2.50;;;22.30;44.10;;;;;;5031681;28;20479;-64
2023/03/08 10:55:04;;;;;;;2.27;2.07;;;22.30;44.10;;;;;;5033124;28;20988;-64
2023/03/08 10:57:33;;;;;;;3.77;2.60;;;22.30;44.10;;;;;;5030433;28;20482;-64
2023/03/08 11:00:12;;;;;;;5.67;2.23;;;22.30;44.10;;;;;;5020575;28;20483;-64
2023/03/08 11:02:41;;;;;;;5.43;2.70;;;22.30;44.10;;;;;;5031526;28;20532;-66
2023/03/08 11:05:20;;;;;;;2.60;2.40;;;22.30;44.10;;;;;;5031986;28;20542;-65
2023/03/08 11:07:52;;;;;;;3.10;2.10;;;22.30;44.20;;;;;;5023814;28;20484;-65
2023/03/08 11:10:23;;;;;;;2.00;1.90;;;22.30;44.20;;;;;;5012668;28;20510;-65
2023/03/08 11:13:02;;;;;;;2.40;2.20;;;22.30;44.10;;;;;;5013810;28;20475;-65
2023/03/08 11:15:34;;;;;;;2.77;2.10;;;22.20;44.10;;;;;;5014253;28;20543;-65
2023/03/08 11:18:09;;;;;;;2.90;2.20;;;22.20;44.10;;;;;;5018321;28;20462;-65
2023/03/08 11:20:44;;;;;;;1.80;1.70;;;22.20;44.10;;;;;;5027132;28;20459;-65
2023/03/08 11:23:25;;;;;;;2.53;1.70;;;22.20;44.20;;;;;;5011799;28;20499;-64
2023/03/08 11:25:59;;;;;;;2.17;1.73;;;22.20;44.30;;;;;;5016728;28;20508;-65
2023/03/08 11:29:00;;;;;;;2.37;2.07;;;22.20;44.30;;;;;;5026508;28;20453;-65
2023/03/08 11:31:33;;;;;;;2.13;2.03;;;22.10;44.30;;;;;;5012006;28;20495;-65
2023/03/08 11:34:36;;;;;;;2.30;2.03;;;22.10;44.40;;;;;;5023124;28;20471;-65
2023/03/08 11:37:12;;;;;;;2.60;1.77;;;22.10;44.40;;;;;;5028952;28;20455;-65
2023/03/08 11:39:46;;;;;;;2.10;1.90;;;22.10;44.50;;;;;;5031983;28;20442;-65
2023/03/08 11:42:26;;;;;;;1.60;1.50;;;22.20;44.50;;;;;;5030337;28;20534;-65
2023/03/08 11:45:11;;;;;;;1.43;1.23;;;22.20;44.60;;;;;;5030218;28;20521;-65
2023/03/08 11:48:07;;;;;;;1.60;1.50;;;22.20;44.60;;;;;;5022631;28;20452;-65
2023/03/08 11:50:42;;;;;;;1.60;1.40;;;22.20;44.60;;;;;;5022044;28;20985;-65
2023/03/08 11:53:18;;;;;;;1.90;1.70;;;22.20;44.70;;;;;;5021111;28;20593;-65
2023/03/08 11:56:02;;;;;;;1.63;1.53;;;22.20;44.70;;;;;;5017175;28;20456;-65
2023/03/08 11:58:35;;;;;;;1.47;1.37;;;22.20;44.70;;;;;;5018282;28;20445;-64
2023/03/08 12:01:09;;;;;;;1.23;1.20;;;22.20;44.80;;;;;;5030271;28;20455;-65
2023/03/08 12:03:42;;;;;;;1.93;1.60;;;22.10;44.80;;;;;;5023442;28;20541;-64
2023/03/08 12:06:14;;;;;;;1.77;1.67;;;22.20;44.80;;;;;;5023690;28;20890;-64
2023/03/08 12:08:59;;;;;;;1.57;1.47;;;22.10;44.90;;;;;;5027098;28;20458;-64
2023/03/08 12:11:31;;;;;;;1.67;1.57;;;22.10;44.90;;;;;;5021315;28;20630;-65
2023/03/08 12:14:06;;;;;;;1.37;1.27;;;22.10;45.00;;;;;;5022135;28;20479;-65
2023/03/08 12:16:44;;;;;;;1.33;1.23;;;22.10;45.00;;;;;;5023842;28;20473;-65
2023/03/08 12:19:21;;;;;;;1.70;1.60;;;22.10;45.10;;;;;;5012362;28;20877;-65
2023/03/08 12:21:58;;;;;;;1.60;1.20;;;22.10;45.10;;;;;;5026081;28;20476;-65
2023/03/08 12:24:38;;;;;;;1.57;1.47;;;22.20;45.10;;;;;;5023152;28;20922;-65
2023/03/08 12:27:12;;;;;;;1.37;1.27;;;22.20;45.10;;;;;;5017736;28;20806;-65
2023/03/08 12:29:44;;;;;;;1.50;1.40;;;22.20;45.10;;;;;;5017614;28;20846;-64
2023/03/08 12:32:14;;;;;;;4.50;1.37;;;22.20;45.10;;;;;;5019818;28;20557;-64
2023/03/08 12:34:45;;;;;;;10.10;2.13;;;22.20;45.30;;;;;;5026689;28;20838;-65
2023/03/08 12:37:23;;;;;;;1.43;1.30;;;22.20;45.60;;;;;;5023376;28;20458;-65
2023/03/08 12:40:00;;;;;;;6.30;1.57;;;22.20;45.80;;;;;;5025093;28;20454;-65
2023/03/08 12:42:34;;;;;;;2.93;1.73;;;22.20;45.80;;;;;;5023558;28;20455;-64
2023/03/08 12:45:26;;;;;;;1.67;1.50;;;22.20;45.90;;;;;;5025041;28;20463;-65
2023/03/08 12:47:57;;;;;;;1.90;1.50;;;22.20;45.90;;;;;;5020734;28;20460;-64
2023/03/08 12:50:25;;;;;;;5.97;2.10;;;22.20;46.00;;;;;;5024349;28;20469;-64
2023/03/08 12:52:57;;;;;;;3.20;1.13;;;22.30;46.00;;;;;;5022546;28;20559;-64
2023/03/08 12:55:30;;;;;;;2.80;1.50;;;22.30;46.00;;;;;;5024995;28;20978;-64
2023/03/08 12:58:02;;;;;;;5.40;1.77;;;22.30;46.00;;;;;;5017321;28;20458;-65
2023/03/08 13:00:33;;;;;;;1.90;1.37;;;22.30;46.10;;;;;;5021108;28;20470;-65
2023/03/08 13:03:04;;;;;;;3.60;1.30;;;22.30;46.10;;;;;;5020027;28;20505;-65
2023/03/08 13:05:35;;;;;;;1.53;1.43;;;22.30;46.10;;;;;;5019709;28;20463;-65
2023/03/08 13:08:22;;;;;;;7.97;1.23;;;22.30;46.20;;;;;;5022142;28;20543;-65
2023/03/08 13:11:00;;;;;;;3.37;1.53;;;22.30;46.20;;;;;;5022906;28;20529;-64